createdAt,value
2022-11-14T00:02:40.486Z,8.8
2022-11-14T00:12:48.584Z,13.07
2022-11-14T00:22:56.617Z,14.58
2022-11-14T00:33:04.765Z,13.36
2022-11-14T00:43:12.852Z,10.32
2022-11-14T00:53:20.963Z,9.35
2022-11-14T01:03:28.974Z,12.22
2022-11-14T01:13:36.893Z,15.27
2022-11-14T01:23:44.885Z,15.47
2022-11-14T01:33:52.791Z,13.84
2022-11-14T01:44:00.863Z,13.55
2022-11-14T01:54:08.881Z,13.02
2022-11-14T02:04:15.574Z,13.03
2022-11-14T02:14:23.634Z,12.99
2022-11-14T02:24:31.640Z,10.17
2022-11-14T02:34:39.632Z,11.3
2022-11-14T02:44:47.740Z,11.64
2022-11-14T02:54:54.964Z,13.22
2022-11-14T03:05:02.906Z,12.74
2022-11-14T03:15:10.898Z,14.11
2022-11-14T03:25:18.897Z,14.12
2022-11-14T03:35:26.817Z,16.23
2022-11-14T03:45:34.954Z,16.33
2022-11-14T03:55:43.815Z,18.05
2022-11-14T04:05:51.896Z,17.17
2022-11-14T04:15:59.884Z,18.11
2022-11-14T04:26:07.904Z,19.95
2022-11-14T04:36:15.914Z,19.61
2022-11-14T04:46:23.922Z,20.73
2022-11-14T04:56:31.888Z,20.31
2022-11-14T05:06:39.879Z,20.6
2022-11-14T05:16:47.348Z,21.71
2022-11-14T05:26:55.347Z,22.13
2022-11-14T05:37:03.554Z,21.4
2022-11-14T05:47:11.677Z,20.7
2022-11-14T05:57:19.753Z,21.72
2022-11-14T06:07:26.810Z,18.83
2022-11-14T06:17:35.023Z,20.58
2022-11-14T06:27:43.190Z,21.72
2022-11-14T06:37:51.158Z,22.87
2022-11-14T06:47:59.206Z,23.94
2022-11-14T06:58:07.361Z,21.77
2022-11-14T07:08:20.772Z,21.42
2022-11-14T07:18:23.757Z,25.66
2022-11-14T07:28:32.150Z,24.29
2022-11-14T07:38:39.028Z,27.51
2022-11-14T07:48:48.407Z,25.84
2022-11-14T07:58:57.667Z,24.18
2022-11-14T08:09:05.906Z,24.76
2022-11-14T08:19:13.962Z,27.06
2022-11-14T08:29:22.055Z,29.32
2022-11-14T08:39:29.976Z,31.19
2022-11-14T08:49:38.232Z,25
2022-11-14T08:59:46.396Z,24.17
2022-11-14T09:09:54.513Z,24.02
2022-11-14T09:20:02.615Z,21.79
2022-11-14T09:30:10.864Z,21.74
2022-11-14T09:40:19.034Z,17.51
2022-11-14T09:50:27.299Z,13.5
2022-11-14T10:00:35.606Z,14.69
2022-11-14T10:10:42.695Z,9.97
2022-11-14T10:20:50.867Z,10.74
2022-11-14T10:30:58.957Z,9.36
2022-11-14T10:41:07.174Z,8.55
2022-11-14T10:51:15.334Z,8.96
2022-11-14T11:01:23.489Z,8.2
2022-11-14T11:11:35.152Z,7.76
2022-11-14T11:21:33.271Z,6.74
2022-11-14T11:31:41.863Z,4.99
2022-11-14T11:42:09.627Z,5.14
2022-11-14T11:51:57.102Z,4.8
2022-11-14T12:02:05.475Z,4.52
2022-11-14T12:12:14.187Z,4.72
2022-11-14T12:22:22.361Z,4.1
2022-11-14T12:32:30.518Z,3.94
2022-11-14T12:42:39.660Z,4.44
2022-11-14T12:52:48.085Z,4.11
2022-11-14T13:02:56.204Z,3.72
2022-11-14T13:13:04.395Z,3.94
2022-11-14T13:23:12.751Z,4.4
2022-11-14T13:33:20.932Z,4.4
2022-11-14T13:43:29.412Z,4.9
2022-11-14T13:53:36.825Z,4.43
2022-11-14T14:03:44.911Z,4.47
2022-11-14T14:13:55.414Z,4.64
2022-11-14T14:24:01.959Z,5.46
2022-11-14T14:34:10.172Z,6.23
2022-11-14T14:44:19.716Z,5.22
2022-11-14T14:54:29.644Z,5.04
2022-11-14T15:04:37.781Z,4.7
2022-11-14T15:14:51.098Z,3.32
2022-11-14T15:24:49.151Z,3.31
2022-11-14T15:34:57.147Z,3.53
2022-11-14T15:45:07.329Z,4.17
2022-11-14T15:55:05.560Z,3.64
2022-11-14T16:05:15.466Z,3.81
2022-11-14T16:15:23.543Z,4.03
2022-11-14T16:25:32.212Z,4.13
2022-11-14T16:35:40.793Z,4.3
2022-11-14T16:45:49.941Z,4.37
2022-11-14T16:55:58.436Z,4.04
2022-11-14T17:06:09.124Z,4.17
2022-11-14T17:16:06.724Z,4.37
2022-11-14T17:26:14.563Z,5.84
2022-11-14T17:36:23.793Z,6.48
2022-11-14T17:46:32.931Z,6.07
2022-11-14T17:56:45.868Z,7.97
2022-11-14T18:06:48.051Z,6.8
2022-11-14T18:17:12.102Z,7.77
2022-11-14T18:27:05.703Z,9.91
2022-11-14T18:37:13.585Z,7.31
2022-11-14T18:47:21.583Z,7.27
2022-11-14T18:57:29.498Z,7.09
2022-11-14T19:07:37.519Z,7.35
2022-11-14T19:17:45.562Z,8.24
2022-11-14T19:28:01.290Z,7.71
2022-11-14T19:37:59.305Z,7.91
2022-11-14T19:48:17.128Z,9.52
2022-11-14T19:58:20.769Z,8.24
2022-11-14T20:08:19.199Z,9.16
2022-11-14T20:18:31.076Z,8.25
2022-11-14T20:28:31.500Z,8.14
2022-11-14T20:38:42.178Z,10.61
2022-11-14T20:48:36.322Z,8.04
2022-11-14T20:58:35.718Z,8.92
2022-11-14T21:08:44.434Z,7.56
2022-11-14T21:19:03.135Z,7.27
2022-11-14T21:29:13.983Z,6.07
2022-11-14T21:39:17.055Z,5.53
2022-11-14T21:49:14.338Z,5.05
2022-11-14T21:59:22.381Z,6.39
2022-11-14T22:09:30.457Z,5.88
2022-11-14T22:19:39.447Z,5.76
2022-11-14T22:29:47.630Z,6.69
2022-11-14T22:39:55.677Z,5.97
2022-11-14T22:50:03.682Z,6.3
2022-11-14T23:00:11.786Z,6.13
2022-11-14T23:10:19.841Z,6.11
2022-11-14T23:20:27.463Z,7.33
2022-11-14T23:30:35.447Z,6.43
2022-11-14T23:40:46.549Z,5.82
2022-11-14T23:50:44.507Z,6.47
